Jackpot, Nevada
Current Conditions -  °F | °C
As of 11:53 PM on Sunday 23 Nov 2014 (Local Time) from KTWF Reporting Station
Broken Clouds Broken Clouds  
Wind Chill: 28°   Ceiling: 5000
Heat Index: 38°   Visibility: 10mi
Dew Point: 24°   Wind: 18mph
Humidity: 57%   Direction: 250°WSW
Pressure: 30.2"   Gusts: 29mph
Location:  41.98°N, 114.68°W
Report Text: KTWF 240753Z AUTO 25016G25KT 10SM BKN050 BKN075 03/M04 A3020 RMK AO2 PK WND 24029/0735 SLP220 T00331044
Loading
Personal Weather Stations






























Interactive Weather Map New forecast layout! Learn more

10-Day Weather Forecast

Advertisements
Track Severe Weather on mobile